Time;durP1;ratioP1;P1;durP2;ratioP2;P2;SDS_P1;SDS_P2;PMS_P1;PMS_P2;Temp;Humidity;BMP_temperature;BMP_pressure;BME280_temperature;BME280_humidity;BME280_pressure;Samples;Min_cycle;Max_cycle;Signal;HPM_P1;HPM_P2
2022/06/28 00:00:36;;;;;;;1.17;0.57;;;20.00;55.50;;;;;;6029773;23;20011;-88
2022/06/28 00:03:02;;;;;;;2.42;0.90;;;20.00;55.50;;;;;;6035156;23;20462;-90
2022/06/28 00:05:28;;;;;;;1.73;0.60;;;20.00;55.50;;;;;;6014787;23;20019;-90
2022/06/28 00:07:53;;;;;;;1.45;0.63;;;19.90;55.60;;;;;;6022307;23;20014;-90
2022/06/28 00:10:19;;;;;;;1.27;0.32;;;19.90;55.60;;;;;;6031399;23;20023;-87
2022/06/28 00:12:45;;;;;;;3.20;0.77;;;19.90;55.70;;;;;;6052559;23;20007;-89
2022/06/28 00:17:58;;;;;;;2.00;0.30;;;19.80;55.70;;;;;;6057180;23;20086;-90
2022/06/28 00:20:24;;;;;;;2.83;0.75;;;19.70;55.70;;;;;;6056380;23;20026;-89
2022/06/28 00:22:50;;;;;;;2.28;0.60;;;19.70;55.90;;;;;;6055978;23;20352;-90
2022/06/28 00:25:16;;;;;;;3.78;0.80;;;19.70;56.00;;;;;;6033410;23;20022;-91
2022/06/28 00:27:42;;;;;;;2.50;0.60;;;19.70;56.00;;;;;;6057069;23;20034;-91
2022/06/28 00:30:10;;;;;;;2.33;0.88;;;19.70;56.10;;;;;;6056133;23;20079;-90
2022/06/28 00:32:35;;;;;;;0.75;0.45;;;19.70;56.10;;;;;;6030920;23;20057;-90
2022/06/28 00:35:03;;;;;;;5.65;0.85;;;19.70;56.10;;;;;;6008568;23;20027;-89
2022/06/28 00:37:29;;;;;;;1.77;0.40;;;19.70;56.10;;;;;;6056460;23;20039;-88
2022/06/28 00:39:55;;;;;;;1.42;0.60;;;19.60;56.10;;;;;;6056567;23;20026;-91
2022/06/28 00:42:22;;;;;;;2.33;0.47;;;19.60;56.10;;;;;;6051317;23;20015;-91
2022/06/28 00:44:48;;;;;;;0.70;0.43;;;19.50;56.10;;;;;;6057532;23;20017;-90
2022/06/28 00:47:15;;;;;;;0.68;0.47;;;19.50;56.10;;;;;;6053647;23;20376;-90
2022/06/28 00:49:42;;;;;;;2.67;0.47;;;19.50;56.20;;;;;;6051439;23;20086;-89
2022/06/28 00:52:09;;;;;;;7.78;0.73;;;19.40;56.20;;;;;;6008207;23;20098;-90
2022/06/28 00:54:35;;;;;;;1.23;0.60;;;19.40;56.30;;;;;;6054924;23;20017;-89
2022/06/28 00:57:01;;;;;;;2.83;0.60;;;19.30;56.30;;;;;;6030714;23;20023;-89
2022/06/28 00:59:28;;;;;;;2.17;0.52;;;19.30;56.40;;;;;;6054520;23;20078;-89
2022/06/28 01:01:57;;;;;;;1.50;0.70;;;19.30;56.50;;;;;;6056999;23;20026;-90
2022/06/28 01:04:22;;;;;;;1.60;0.40;;;19.20;56.50;;;;;;6033964;23;20018;-89
2022/06/28 01:06:49;;;;;;;3.30;0.68;;;19.20;56.60;;;;;;6054890;23;20019;-89
2022/06/28 01:09:14;;;;;;;4.30;0.60;;;19.20;56.70;;;;;;6054447;23;20474;-89
2022/06/28 01:11:40;;;;;;;0.80;0.50;;;19.10;56.70;;;;;;6031797;23;20039;-90
2022/06/28 01:14:07;;;;;;;2.58;0.70;;;19.10;56.70;;;;;;6031597;23;20026;-89
2022/06/28 01:16:34;;;;;;;1.50;0.50;;;19.10;56.70;;;;;;6053819;23;20019;-89
2022/06/28 01:18:59;;;;;;;0.98;0.50;;;19.10;56.70;;;;;;6032370;23;20029;-90
2022/06/28 01:21:28;;;;;;;1.05;0.60;;;19.10;56.80;;;;;;6056366;23;20018;-89
2022/06/28 01:23:55;;;;;;;0.70;0.45;;;19.10;56.80;;;;;;6008885;23;20344;-86
2022/06/28 01:26:21;;;;;;;0.40;0.38;;;19.10;56.80;;;;;;6055966;23;20109;-90
2022/06/28 01:28:49;;;;;;;4.07;1.02;;;19.10;56.80;;;;;;6056562;23;20015;-90
2022/06/28 01:31:18;;;;;;;0.80;0.40;;;19.10;56.80;;;;;;6053574;23;20118;-89
2022/06/28 01:33:44;;;;;;;3.08;0.57;;;19.10;56.90;;;;;;6008418;23;20029;-89
2022/06/28 01:36:11;;;;;;;1.80;0.68;;;19.00;56.80;;;;;;6030378;23;20444;-90
2022/06/28 01:38:41;;;;;;;0.43;0.35;;;19.00;57.40;;;;;;6055907;23;20018;-89
2022/06/28 01:41:08;;;;;;;2.17;0.60;;;19.00;56.90;;;;;;6031323;23;20011;-89
2022/06/28 01:43:36;;;;;;;2.45;0.55;;;19.00;56.90;;;;;;6030886;23;20011;-91
2022/06/28 01:46:04;;;;;;;3.03;0.60;;;18.90;56.90;;;;;;6030321;23;20485;-90
2022/06/28 01:48:32;;;;;;;3.25;0.57;;;18.90;57.00;;;;;;6057048;23;20007;-89
2022/06/28 01:50:58;;;;;;;2.90;0.80;;;18.90;57.00;;;;;;6057035;23;20086;-91
2022/06/28 01:53:23;;;;;;;1.20;0.45;;;18.90;57.10;;;;;;6055903;23;20049;-89
2022/06/28 01:55:49;;;;;;;2.75;0.70;;;18.90;57.00;;;;;;6057157;23;20018;-87
2022/06/28 01:58:15;;;;;;;1.08;0.50;;;18.90;57.00;;;;;;6032026;23;20090;-89
2022/06/28 02:00:41;;;;;;;1.48;0.63;;;18.90;56.90;;;;;;6053698;23;20010;-89
2022/06/28 02:03:07;;;;;;;2.35;0.70;;;18.90;56.90;;;;;;6054192;23;20598;-90
2022/06/28 02:05:33;;;;;;;2.95;0.50;;;18.80;56.70;;;;;;6032216;23;20458;-88
2022/06/28 02:08:00;;;;;;;1.77;0.60;;;18.80;56.70;;;;;;6032310;23;20026;-92
2022/06/28 02:10:26;;;;;;;2.53;0.55;;;18.80;56.80;;;;;;6029741;23;20470;-89
2022/06/28 02:12:53;;;;;;;0.98;0.50;;;18.80;57.40;;;;;;6008569;23;20023;-90
2022/06/28 02:15:19;;;;;;;1.15;0.60;;;18.70;56.70;;;;;;6031360;23;20018;-91
2022/06/28 02:17:45;;;;;;;0.93;0.43;;;18.70;56.80;;;;;;6033161;23;20047;-90
2022/06/28 02:20:13;;;;;;;1.73;0.50;;;18.60;56.80;;;;;;6010434;23;20066;-92
2022/06/28 02:22:39;;;;;;;1.20;0.45;;;18.60;56.80;;;;;;6036397;23;20357;-90
2022/06/28 02:25:06;;;;;;;1.70;0.80;;;18.60;56.80;;;;;;6009006;23;20072;-90
2022/06/28 02:27:32;;;;;;;2.13;0.50;;;18.60;56.80;;;;;;6032064;23;20047;-90
2022/06/28 02:29:58;;;;;;;2.63;0.60;;;18.60;56.90;;;;;;6032852;23;20043;-93
2022/06/28 02:32:24;;;;;;;2.63;0.70;;;18.60;56.80;;;;;;6034603;23;20015;-90
2022/06/28 02:40:22;;;;;;;2.38;0.80;;;18.50;56.70;;;;;;6038236;23;20025;-90
2022/06/28 02:42:48;;;;;;;1.50;0.80;;;18.50;56.70;;;;;;6010400;23;20022;-90
2022/06/28 02:45:14;;;;;;;1.02;0.70;;;18.50;56.70;;;;;;6033653;23;20493;-90
2022/06/28 02:47:40;;;;;;;2.13;0.50;;;18.50;56.70;;;;;;6007346;23;20042;-88
2022/06/28 02:50:07;;;;;;;1.17;0.52;;;18.50;56.70;;;;;;6035148;23;20047;-90
2022/06/28 02:52:32;;;;;;;1.35;0.68;;;18.50;56.70;;;;;;6032704;23;20344;-88
2022/06/28 02:54:58;;;;;;;1.30;0.47;;;18.40;56.80;;;;;;6032789;23;20071;-90
2022/06/28 02:57:24;;;;;;;2.97;0.60;;;18.40;56.90;;;;;;6031895;23;20015;-90
2022/06/28 02:59:50;;;;;;;2.88;0.40;;;18.40;56.90;;;;;;6009787;23;20033;-90
2022/06/28 03:02:16;;;;;;;1.20;0.60;;;18.40;57.00;;;;;;6008963;23;20415;-90
2022/06/28 03:04:41;;;;;;;2.60;0.70;;;18.30;57.00;;;;;;6059082;23;20029;-90
2022/06/28 03:07:07;;;;;;;3.47;0.77;;;18.30;57.10;;;;;;6007537;23;20015;-90
2022/06/28 03:09:33;;;;;;;4.78;0.63;;;18.20;57.00;;;;;;6035648;23;20054;-90
2022/06/28 03:11:59;;;;;;;1.85;0.52;;;18.20;57.00;;;;;;6033433;23;20015;-90
2022/06/28 03:14:25;;;;;;;5.28;1.13;;;18.20;57.10;;;;;;6056456;23;20022;-90
2022/06/28 03:16:51;;;;;;;5.90;0.85;;;18.20;57.00;;;;;;6031135;23;20054;-91
2022/06/28 03:19:16;;;;;;;1.73;0.88;;;18.20;57.00;;;;;;6009473;23;20077;-90
2022/06/28 03:21:42;;;;;;;1.92;0.70;;;18.20;56.90;;;;;;6008998;23;20019;-90
2022/06/28 03:24:08;;;;;;;1.92;0.65;;;18.20;56.90;;;;;;6055836;23;20014;-90
2022/06/28 03:26:34;;;;;;;1.73;0.85;;;18.20;56.80;;;;;;6031653;23;20448;-87
2022/06/28 03:29:00;;;;;;;2.58;0.82;;;18.20;56.80;;;;;;6034915;23;20003;-90
2022/06/28 03:31:26;;;;;;;3.00;0.60;;;18.20;56.70;;;;;;6032115;23;20042;-90
2022/06/28 03:33:51;;;;;;;3.25;0.82;;;18.20;56.70;;;;;;6033674;23;20006;-90
2022/06/28 03:36:17;;;;;;;0.57;0.52;;;18.20;56.60;;;;;;6005239;23;20021;-90
2022/06/28 03:38:43;;;;;;;0.77;0.50;;;18.20;56.60;;;;;;6034645;23;20010;-89
2022/06/28 03:41:09;;;;;;;1.33;0.50;;;18.20;56.70;;;;;;6006452;23;20014;-90
2022/06/28 03:43:34;;;;;;;3.67;0.80;;;18.20;56.70;;;;;;6008219;23;20003;-90
2022/06/28 03:46:00;;;;;;;3.67;0.70;;;18.20;56.80;;;;;;6006609;23;20022;-90
2022/06/28 03:48:26;;;;;;;1.42;0.65;;;18.10;56.80;;;;;;6010727;23;20037;-91
2022/06/28 03:50:52;;;;;;;1.42;0.60;;;18.10;56.90;;;;;;6032766;23;20067;-90
2022/06/28 03:53:17;;;;;;;1.17;0.68;;;18.10;56.90;;;;;;6032249;23;20019;-90
2022/06/28 03:55:43;;;;;;;1.05;0.70;;;18.00;56.90;;;;;;6010818;23;20034;-89
2022/06/28 03:58:09;;;;;;;2.97;0.52;;;18.00;57.00;;;;;;6003929;23;20015;-89
2022/06/28 04:00:34;;;;;;;1.23;0.70;;;18.00;57.50;;;;;;6010116;23;20018;-90
2022/06/28 04:03:01;;;;;;;5.07;0.68;;;18.00;57.00;;;;;;6009595;23;20078;-90
2022/06/28 04:05:28;;;;;;;4.53;0.75;;;18.00;56.90;;;;;;6008831;23;20011;-90
2022/06/28 04:07:53;;;;;;;1.90;0.63;;;18.00;56.90;;;;;;6032592;23;20019;-87
2022/06/28 04:10:19;;;;;;;2.15;0.73;;;18.00;57.00;;;;;;6008421;23;20022;-89
2022/06/28 04:12:45;;;;;;;2.85;0.80;;;18.00;57.00;;;;;;6031279;23;20033;-90
2022/06/28 04:15:11;;;;;;;2.33;0.93;;;18.20;57.20;;;;;;6006529;23;20050;-90
2022/06/28 04:17:37;;;;;;;1.55;0.90;;;17.90;57.20;;;;;;6009507;23;20122;-90
2022/06/28 04:20:03;;;;;;;1.77;0.70;;;17.90;57.30;;;;;;6032749;23;20021;-89
2022/06/28 04:22:29;;;;;;;2.25;0.75;;;17.90;57.20;;;;;;6032286;23;20015;-90
2022/06/28 04:24:55;;;;;;;1.33;0.98;;;17.90;57.20;;;;;;6032444;23;20019;-90
2022/06/28 04:27:21;;;;;;;3.45;1.00;;;17.80;57.10;;;;;;6034949;23;20016;-90
2022/06/28 04:29:46;;;;;;;1.17;0.73;;;17.80;57.10;;;;;;6010149;23;20454;-91
2022/06/28 04:32:12;;;;;;;2.70;0.90;;;17.80;57.10;;;;;;6008669;23;20471;-90
2022/06/28 04:34:38;;;;;;;1.58;0.70;;;17.80;57.00;;;;;;6008679;23;20015;-90
2022/06/28 04:37:04;;;;;;;2.05;0.65;;;17.80;57.10;;;;;;6008072;23;20470;-90
2022/06/28 04:39:29;;;;;;;1.60;0.80;;;17.80;57.10;;;;;;6032049;23;20022;-89
2022/06/28 04:41:56;;;;;;;2.05;1.00;;;17.80;57.10;;;;;;6006632;23;20074;-87
2022/06/28 04:44:22;;;;;;;1.33;0.70;;;17.80;57.20;;;;;;6008468;23;20023;-91
2022/06/28 04:46:48;;;;;;;1.13;0.65;;;17.80;57.30;;;;;;6033828;23;20019;-89
2022/06/28 04:49:13;;;;;;;1.42;0.75;;;17.80;57.30;;;;;;6033873;23;20002;-90
2022/06/28 04:51:39;;;;;;;1.13;0.70;;;17.80;57.40;;;;;;6031295;23;20022;-90
2022/06/28 04:54:05;;;;;;;2.30;0.80;;;18.10;57.50;;;;;;6033118;23;19999;-89
2022/06/28 04:56:30;;;;;;;3.13;0.80;;;17.80;57.40;;;;;;6010337;23;20034;-90
2022/06/28 04:58:56;;;;;;;4.80;0.90;;;17.80;57.50;;;;;;6006864;23;20011;-90
2022/06/28 05:01:22;;;;;;;4.25;1.05;;;17.80;57.60;;;;;;6009423;23;20058;-87
2022/06/28 05:03:48;;;;;;;1.80;0.70;;;17.80;57.70;;;;;;6034996;23;20037;-90
2022/06/28 05:06:13;;;;;;;3.83;1.00;;;17.90;57.90;;;;;;6009916;23;20075;-90
2022/06/28 05:08:39;;;;;;;2.58;0.90;;;17.90;58.00;;;;;;6032955;23;20107;-90
2022/06/28 05:11:07;;;;;;;1.85;0.80;;;17.90;58.00;;;;;;6008582;23;20025;-89
2022/06/28 05:13:33;;;;;;;2.08;0.70;;;18.00;58.10;;;;;;6033158;23;20601;-90
2022/06/28 05:15:59;;;;;;;2.85;0.90;;;17.90;58.10;;;;;;6030070;23;20102;-91
2022/06/28 05:18:25;;;;;;;2.95;0.80;;;17.90;58.20;;;;;;6031811;23;20039;-91
2022/06/28 05:20:51;;;;;;;1.85;0.70;;;17.90;58.30;;;;;;6003868;23;20030;-90
2022/06/28 05:23:17;;;;;;;4.32;0.98;;;18.00;58.50;;;;;;6008505;23;20022;-90
2022/06/28 05:25:43;;;;;;;6.40;0.90;;;18.00;58.50;;;;;;6009500;23;20094;-90
2022/06/28 05:28:09;;;;;;;1.90;1.30;;;18.00;58.60;;;;;;6009563;23;20038;-90
2022/06/28 05:30:34;;;;;;;3.20;1.00;;;18.00;58.60;;;;;;6009471;23;20392;-90
2022/06/28 05:33:03;;;;;;;2.60;0.77;;;18.00;58.70;;;;;;6010826;23;20042;-90
2022/06/28 05:35:29;;;;;;;2.83;0.88;;;18.00;58.70;;;;;;6033656;23;20482;-90
2022/06/28 05:37:54;;;;;;;31.88;13.75;;;18.00;58.80;;;;;;6007067;23;20029;-90
2022/06/28 05:40:21;;;;;;;3.35;1.23;;;18.00;59.00;;;;;;6008985;23;20082;-90
2022/06/28 05:42:47;;;;;;;2.63;0.98;;;17.90;59.00;;;;;;6008185;23;20034;-89
2022/06/28 05:45:12;;;;;;;1.77;0.90;;;18.00;59.20;;;;;;6035544;23;20069;-90
2022/06/28 05:47:38;;;;;;;1.70;1.08;;;18.00;59.40;;;;;;6028599;23;20354;-90
2022/06/28 05:50:04;;;;;;;3.25;0.98;;;18.00;59.60;;;;;;6008652;23;20335;-89
2022/06/28 05:52:30;;;;;;;1.25;0.80;;;18.00;59.70;;;;;;6033354;23;20046;-90
2022/06/28 05:54:56;;;;;;;2.13;1.10;;;18.10;59.90;;;;;;6008802;23;20026;-89
2022/06/28 05:57:22;;;;;;;3.75;0.77;;;18.10;60.00;;;;;;6009453;23;20019;-90
2022/06/28 05:59:47;;;;;;;1.35;0.75;;;18.10;60.00;;;;;;6009854;23;20078;-90
2022/06/28 06:02:13;;;;;;;1.75;0.85;;;18.20;60.70;;;;;;6055271;23;20074;-90
2022/06/28 06:04:39;;;;;;;2.13;0.93;;;18.20;60.20;;;;;;6012068;23;20034;-87
2022/06/28 06:07:05;;;;;;;4.93;0.90;;;18.20;60.40;;;;;;6034100;23;20022;-89
2022/06/28 06:09:31;;;;;;;1.52;0.90;;;18.30;60.60;;;;;;6033138;23;20018;-92
2022/06/28 06:11:56;;;;;;;4.30;1.10;;;18.30;60.70;;;;;;6008378;23;20013;-90
2022/06/28 06:14:22;;;;;;;3.50;0.90;;;18.40;60.90;;;;;;6006702;23;20006;-91
2022/06/28 06:16:50;;;;;;;2.75;1.00;;;18.40;61.00;;;;;;6010323;23;20094;-92
2022/06/28 06:19:17;;;;;;;4.78;1.05;;;18.40;61.10;;;;;;6035107;23;20017;-90
2022/06/28 06:21:43;;;;;;;7.80;2.13;;;18.40;61.10;;;;;;6032093;23;20026;-90
2022/06/28 06:24:09;;;;;;;5.85;1.15;;;18.50;61.40;;;;;;6011511;23;20006;-89
2022/06/28 06:26:35;;;;;;;1.23;0.88;;;18.50;61.70;;;;;;6035821;23;20015;-90
2022/06/28 06:29:00;;;;;;;2.80;1.15;;;18.60;61.80;;;;;;6010683;23;20034;-88
2022/06/28 06:31:27;;;;;;;2.97;1.00;;;18.60;62.00;;;;;;6010184;23;20030;-88
2022/06/28 06:33:53;;;;;;;5.03;0.93;;;18.60;62.70;;;;;;6035485;23;20887;-88
2022/06/28 06:36:19;;;;;;;1.55;0.77;;;18.70;62.30;;;;;;6031781;23;20045;-88
2022/06/28 06:38:45;;;;;;;6.93;1.17;;;18.70;62.50;;;;;;6008688;23;20042;-87
2022/06/28 06:41:11;;;;;;;5.75;1.00;;;18.70;62.60;;;;;;6035186;23;20015;-90
2022/06/28 06:43:37;;;;;;;2.83;1.10;;;18.80;62.80;;;;;;6056385;23;20022;-89
2022/06/28 06:46:03;;;;;;;4.25;1.10;;;18.90;63.10;;;;;;6008239;23;20019;-86
2022/06/28 06:48:28;;;;;;;3.60;0.88;;;18.80;63.30;;;;;;6009302;23;20046;-88
2022/06/28 06:50:54;;;;;;;4.13;1.00;;;18.90;63.40;;;;;;6006665;23;20053;-86
2022/06/28 06:53:20;;;;;;;4.13;0.98;;;18.90;63.50;;;;;;6008298;23;20018;-88
2022/06/28 06:55:48;;;;;;;2.25;0.65;;;18.90;63.60;;;;;;6033616;23;20041;-89
2022/06/28 06:58:14;;;;;;;4.65;0.82;;;18.90;63.60;;;;;;6033962;23;20018;-88
2022/06/28 07:00:40;;;;;;;4.15;0.70;;;19.00;63.80;;;;;;6006603;23;20019;-88
2022/06/28 07:03:07;;;;;;;2.88;0.90;;;19.00;63.70;;;;;;6035580;23;20508;-88
2022/06/28 07:05:32;;;;;;;4.13;0.80;;;19.10;63.80;;;;;;6032462;23;20050;-88
2022/06/28 07:07:58;;;;;;;5.03;0.82;;;19.10;63.90;;;;;;6010100;23;20018;-88
2022/06/28 07:10:24;;;;;;;1.70;0.88;;;19.20;64.00;;;;;;6008464;23;20018;-88
2022/06/28 07:12:50;;;;;;;3.30;1.05;;;19.10;63.90;;;;;;6032867;23;20358;-89
2022/06/28 07:15:16;;;;;;;2.33;0.73;;;19.20;64.10;;;;;;6033932;23;20073;-87
2022/06/28 07:17:42;;;;;;;4.20;0.90;;;19.20;64.20;;;;;;6002647;23;20057;-87
2022/06/28 07:20:08;;;;;;;2.38;0.80;;;19.30;64.20;;;;;;6008310;23;20458;-87
2022/06/28 07:22:34;;;;;;;6.00;0.93;;;19.30;64.20;;;;;;6032454;23;20014;-88
2022/06/28 07:25:00;;;;;;;2.63;0.80;;;19.30;64.20;;;;;;6035178;23;20399;-88
2022/06/28 07:27:27;;;;;;;3.13;0.82;;;19.40;64.10;;;;;;6032282;23;20481;-88
2022/06/28 07:29:53;;;;;;;2.45;0.70;;;19.40;64.00;;;;;;6034256;23;20335;-87
2022/06/28 07:32:19;;;;;;;2.08;1.00;;;19.50;64.10;;;;;;6029454;23;20069;-88
2022/06/28 07:34:45;;;;;;;1.77;0.70;;;19.50;64.10;;;;;;6031992;23;20086;-88
2022/06/28 07:37:11;;;;;;;3.25;0.63;;;19.50;64.10;;;;;;6006575;23;20085;-86
2022/06/28 07:39:38;;;;;;;1.38;0.60;;;19.50;64.10;;;;;;6032474;23;20146;-86
2022/06/28 07:42:04;;;;;;;2.22;0.80;;;19.60;64.10;;;;;;6032281;23;20400;-88
2022/06/28 07:44:30;;;;;;;4.43;0.90;;;19.70;64.10;;;;;;6033006;23;20011;-88
2022/06/28 07:46:56;;;;;;;2.13;0.65;;;19.70;64.20;;;;;;6032087;23;20070;-88
2022/06/28 07:49:22;;;;;;;1.50;0.82;;;19.70;64.00;;;;;;6032821;23;20021;-87
2022/06/28 07:54:32;;;;;;;5.38;1.13;;;19.80;63.90;;;;;;6037610;23;20480;-87
2022/06/28 07:56:58;;;;;;;5.35;0.70;;;19.80;63.70;;;;;;6009372;23;20105;-89
2022/06/28 07:59:24;;;;;;;2.67;0.65;;;19.80;63.70;;;;;;6027499;23;20011;-88
2022/06/28 08:01:50;;;;;;;2.17;0.82;;;19.90;63.70;;;;;;6031334;23;20026;-88
2022/06/28 08:04:15;;;;;;;2.90;1.00;;;19.90;63.70;;;;;;6008118;23;20045;-89
2022/06/28 08:06:43;;;;;;;3.78;0.85;;;20.00;63.70;;;;;;6009194;23;20062;-88
2022/06/28 08:09:09;;;;;;;2.28;0.77;;;20.00;63.70;;;;;;6007653;23;20355;-88
2022/06/28 08:11:35;;;;;;;1.40;0.63;;;20.10;63.70;;;;;;6030844;23;20044;-88
2022/06/28 08:14:02;;;;;;;2.63;0.80;;;20.10;63.70;;;;;;6032687;23;20474;-88
2022/06/28 08:16:28;;;;;;;3.83;0.85;;;20.10;64.20;;;;;;6009693;23;20090;-88
2022/06/28 08:18:53;;;;;;;2.75;0.73;;;20.20;63.40;;;;;;6033102;23;20544;-88
2022/06/28 08:21:20;;;;;;;5.50;1.75;;;20.20;63.30;;;;;;6008985;23;20026;-88
2022/06/28 08:23:45;;;;;;;1.40;0.90;;;20.20;63.20;;;;;;6033626;23;20014;-88
2022/06/28 08:26:11;;;;;;;4.38;1.15;;;20.30;63.80;;;;;;6032903;23;20462;-89
2022/06/28 08:28:37;;;;;;;3.17;0.63;;;20.30;63.60;;;;;;6031829;23;20110;-89
2022/06/28 08:31:03;;;;;;;1.05;0.50;;;20.40;62.90;;;;;;6005714;23;20018;-88
2022/06/28 08:33:29;;;;;;;4.03;0.60;;;20.40;62.50;;;;;;6030073;23;20022;-86
2022/06/28 08:35:54;;;;;;;2.67;0.50;;;20.40;61.90;;;;;;6008640;23;20025;-88
2022/06/28 08:38:20;;;;;;;4.93;0.82;;;20.50;61.30;;;;;;6002727;23;20015;-88
2022/06/28 08:40:46;;;;;;;2.63;0.63;;;20.60;61.00;;;;;;6030558;23;20049;-88
2022/06/28 08:43:12;;;;;;;4.50;0.98;;;20.60;60.80;;;;;;6029736;23;20026;-89
2022/06/28 08:45:38;;;;;;;1.70;0.60;;;20.60;60.50;;;;;;6029997;23;20018;-89
2022/06/28 08:48:25;;;;;;;3.17;0.90;;;20.70;60.20;;;;;;6006244;23;20045;-88
2022/06/28 08:50:53;;;;;;;3.03;0.70;;;20.70;59.60;;;;;;6008669;23;20014;-89
2022/06/28 08:53:22;;;;;;;2.95;1.15;;;20.70;59.30;;;;;;6031851;23;20358;-89
2022/06/28 08:55:50;;;;;;;0.80;0.43;;;20.80;59.20;;;;;;6032756;23;20300;-89
2022/06/28 08:58:16;;;;;;;2.35;0.88;;;20.80;58.80;;;;;;6009732;23;20015;-88
2022/06/28 09:00:42;;;;;;;3.03;1.00;;;20.80;58.50;;;;;;6030213;23;20014;-90
2022/06/28 09:03:08;;;;;;;2.90;0.70;;;20.90;58.20;;;;;;6031307;23;20537;-89
2022/06/28 09:05:34;;;;;;;4.20;1.08;;;20.90;57.90;;;;;;6006576;23;20094;-90
2022/06/28 09:08:00;;;;;;;3.65;0.90;;;20.90;57.60;;;;;;6032993;23;20046;-88
2022/06/28 09:10:27;;;;;;;4.57;0.90;;;21.00;57.60;;;;;;6033306;23;20023;-89
2022/06/28 09:13:14;;;;;;;1.65;0.47;;;21.00;57.20;;;;;;6030548;23;20025;-90
2022/06/28 09:15:51;;;;;;;1.50;0.63;;;21.00;56.90;;;;;;6029733;23;20023;-90
2022/06/28 09:18:19;;;;;;;1.20;0.50;;;21.10;56.80;;;;;;6007795;23;20022;-90
2022/06/28 09:20:50;;;;;;;3.20;0.80;;;21.10;56.60;;;;;;6031330;23;20034;-90
2022/06/28 09:23:29;;;;;;;3.60;0.85;;;21.20;56.50;;;;;;6031493;23;20031;-90
2022/06/28 09:26:02;;;;;;;2.13;1.00;;;21.20;56.10;;;;;;6033238;23;20021;-90
2022/06/28 09:28:30;;;;;;;3.70;0.77;;;21.20;55.90;;;;;;6035096;23;20026;-87
2022/06/28 09:31:22;;;;;;;2.72;0.52;;;21.20;55.70;;;;;;6033564;23;20035;-90
2022/06/28 09:34:09;;;;;;;3.03;0.50;;;21.30;55.60;;;;;;6023539;23;20045;-87
2022/06/28 09:36:38;;;;;;;1.52;0.73;;;21.30;55.50;;;;;;5983693;23;20022;-90
2022/06/28 09:39:16;;;;;;;2.25;0.75;;;21.40;55.50;;;;;;6032410;23;20019;-90
2022/06/28 09:42:01;;;;;;;1.90;0.77;;;21.40;55.10;;;;;;6038633;23;20014;-90
2022/06/28 09:44:28;;;;;;;1.65;0.70;;;21.50;54.90;;;;;;6036713;23;20466;-90
2022/06/28 09:46:57;;;;;;;3.42;0.80;;;21.50;54.60;;;;;;6034084;23;20018;-90
2022/06/28 09:49:31;;;;;;;3.75;0.85;;;21.60;54.40;;;;;;6033740;23;20071;-90
2022/06/28 09:52:01;;;;;;;4.93;0.70;;;21.60;54.10;;;;;;6034368;23;20021;-90
2022/06/28 09:54:29;;;;;;;6.93;0.68;;;21.60;54.00;;;;;;6034667;23;20090;-90
2022/06/28 09:56:56;;;;;;;2.78;0.77;;;21.70;54.00;;;;;;6033692;23;20516;-90
2022/06/28 09:59:27;;;;;;;0.80;0.60;;;21.70;53.90;;;;;;6033395;23;20467;-88
2022/06/28 10:01:55;;;;;;;1.30;0.55;;;21.80;53.70;;;;;;6033659;23;20018;-90
2022/06/28 10:04:26;;;;;;;3.70;0.70;;;21.80;53.70;;;;;;6030794;23;20400;-87
2022/06/28 10:06:53;;;;;;;0.95;0.57;;;21.90;53.40;;;;;;6034073;23;20105;-90
2022/06/28 10:09:20;;;;;;;4.63;0.80;;;21.90;53.70;;;;;;6033690;23;20534;-90
2022/06/28 10:17:23;;;;;;;3.42;0.77;;;22.10;52.60;;;;;;6037649;23;20029;-89
2022/06/28 10:19:50;;;;;;;2.97;0.70;;;22.10;52.40;;;;;;6056777;23;20490;-89
2022/06/28 10:22:16;;;;;;;2.88;0.80;;;22.10;52.40;;;;;;6010239;23;20030;-92
2022/06/28 10:24:57;;;;;;;3.47;1.13;;;22.20;52.20;;;;;;6010758;23;20034;-90
2022/06/28 10:27:25;;;;;;;3.45;0.60;;;22.10;51.90;;;;;;6032079;23;20035;-90
2022/06/28 10:30:09;;;;;;;2.22;0.80;;;22.20;52.00;;;;;;6007816;23;20312;-90
2022/06/28 10:32:42;;;;;;;1.10;0.40;;;22.20;51.80;;;;;;6055621;23;20053;-89
2022/06/28 10:35:08;;;;;;;2.78;0.70;;;22.30;51.60;;;;;;6032710;23;20332;-90
2022/06/28 10:37:34;;;;;;;1.05;0.50;;;22.30;51.50;;;;;;6034266;23;20038;-87
2022/06/28 10:40:24;;;;;;;2.25;0.65;;;22.40;51.30;;;;;;6034896;23;20011;-90
2022/06/28 10:42:53;;;;;;;2.17;0.50;;;22.40;50.80;;;;;;6032800;23;20019;-90
2022/06/28 10:45:22;;;;;;;1.50;0.68;;;22.50;50.80;;;;;;6034581;23;20413;-89
2022/06/28 10:48:09;;;;;;;3.25;0.70;;;22.50;50.10;;;;;;6032934;23;20442;-90
2022/06/28 10:51:03;;;;;;;0.95;0.40;;;22.60;50.10;;;;;;6033428;23;20034;-90
2022/06/28 10:53:51;;;;;;;0.77;0.40;;;22.60;50.20;;;;;;6034477;23;20019;-91
2022/06/28 10:56:17;;;;;;;2.17;0.50;;;22.60;50.30;;;;;;6032210;23;20042;-90
2022/06/28 10:59:02;;;;;;;2.53;0.60;;;22.70;50.10;;;;;;6031810;23;20501;-91
2022/06/28 11:01:40;;;;;;;;;;;22.80;49.80;;;;;;6057942;23;20023;-90
2022/06/28 11:04:19;;;;;;;0.98;0.50;;;22.80;50.10;;;;;;6034401;23;19909;-90
2022/06/28 11:06:57;;;;;;;3.67;0.82;;;22.90;49.90;;;;;;6057759;23;20019;-91
2022/06/28 11:09:44;;;;;;;0.73;0.40;;;22.90;49.70;;;;;;6032339;23;20021;-91
2022/06/28 11:12:40;;;;;;;1.20;0.60;;;22.90;48.90;;;;;;6054573;23;20019;-90
2022/06/28 11:15:12;;;;;;;0.90;0.43;;;22.90;48.90;;;;;;5987394;23;20085;-88
2022/06/28 11:17:43;;;;;;;1.60;0.63;;;23.00;49.10;;;;;;6032155;23;20407;-90
2022/06/28 11:20:15;;;;;;;2.30;0.52;;;23.00;48.90;;;;;;6033762;23;20010;-91
2022/06/28 11:22:50;;;;;;;2.05;0.70;;;23.10;48.70;;;;;;6009156;23;20030;-90
2022/06/28 11:25:20;;;;;;;1.80;0.60;;;23.10;48.50;;;;;;6034158;23;20003;-90
2022/06/28 11:27:46;;;;;;;2.08;0.90;;;23.20;48.50;;;;;;6058132;23;20057;-90
2022/06/28 11:30:14;;;;;;;1.63;0.85;;;23.20;48.80;;;;;;6056501;23;20038;-91
2022/06/28 11:32:45;;;;;;;2.30;0.70;;;23.30;48.20;;;;;;6033126;23;20288;-88
2022/06/28 11:35:16;;;;;;;1.75;0.85;;;23.40;47.90;;;;;;6031758;23;20014;-92
2022/06/28 11:38:05;;;;;;;1.13;0.50;;;23.40;48.10;;;;;;6031465;23;20019;-90
2022/06/28 11:40:47;;;;;;;2.05;0.70;;;23.50;48.10;;;;;;6034881;23;20010;-94
2022/06/28 11:43:26;;;;;;;1.73;0.60;;;23.50;47.80;;;;;;6033377;23;20022;-90
2022/06/28 11:45:54;;;;;;;2.60;0.70;;;23.60;47.60;;;;;;6034298;23;20007;-90
2022/06/28 11:48:24;;;;;;;8.23;0.98;;;23.60;47.30;;;;;;6032047;23;20022;-90
2022/06/28 11:50:54;;;;;;;2.42;0.80;;;23.70;47.30;;;;;;6032182;23;20450;-89
2022/06/28 11:53:22;;;;;;;2.28;0.70;;;23.70;47.40;;;;;;6032657;23;20011;-90
2022/06/28 11:55:52;;;;;;;1.77;0.60;;;23.70;47.20;;;;;;6033367;23;20465;-90
2022/06/28 11:58:32;;;;;;;2.00;0.52;;;23.80;47.00;;;;;;6031167;23;20354;-90
2022/06/28 12:01:15;;;;;;;1.48;0.65;;;23.80;46.60;;;;;;6033719;23;20020;-90
2022/06/28 12:03:41;;;;;;;1.52;0.40;;;23.90;46.60;;;;;;5978994;23;20471;-90
2022/06/28 12:06:29;;;;;;;3.40;0.80;;;23.90;46.70;;;;;;6029665;23;20019;-89
2022/06/28 12:09:00;;;;;;;0.93;0.40;;;23.90;46.60;;;;;;5980754;23;20083;-90
2022/06/28 12:11:31;;;;;;;1.27;0.70;;;23.90;46.00;;;;;;6003314;23;20020;-90
2022/06/28 12:14:31;;;;;;;1.70;0.90;;;24.00;46.10;;;;;;6027352;23;20094;-91
2022/06/28 12:17:00;;;;;;;2.38;0.50;;;24.00;46.10;;;;;;5975251;23;20527;-89
2022/06/28 12:19:32;;;;;;;4.20;0.77;;;24.00;46.30;;;;;;5979696;23;20498;-89
2022/06/28 12:22:12;;;;;;;1.95;0.60;;;24.10;46.40;;;;;;5978709;23;20038;-90
2022/06/28 12:24:47;;;;;;;5.65;1.58;;;24.10;46.20;;;;;;5981017;23;20023;-89
2022/06/28 12:27:18;;;;;;;2.58;1.05;;;24.10;46.20;;;;;;6002352;23;20031;-89
2022/06/28 12:29:45;;;;;;;3.60;0.95;;;24.20;45.80;;;;;;6000966;23;20015;-89
2022/06/28 12:32:11;;;;;;;4.03;1.00;;;24.20;45.70;;;;;;6003155;23;20475;-88
2022/06/28 12:34:40;;;;;;;1.08;0.70;;;24.20;45.70;;;;;;5981320;23;20026;-89
2022/06/28 12:37:07;;;;;;;0.98;0.60;;;24.20;45.50;;;;;;5981245;23;20023;-90
2022/06/28 12:39:32;;;;;;;2.50;0.82;;;24.30;45.40;;;;;;6002916;23;20027;-90
2022/06/28 12:41:58;;;;;;;4.70;0.93;;;24.30;45.50;;;;;;5974581;23;20023;-90
2022/06/28 12:44:24;;;;;;;2.40;0.70;;;24.40;45.20;;;;;;6004205;23;20023;-88
2022/06/28 12:46:52;;;;;;;1.92;0.50;;;24.40;45.10;;;;;;5978398;23;20023;-89
2022/06/28 12:49:19;;;;;;;4.03;1.08;;;24.50;45.20;;;;;;6001135;23;20097;-90
2022/06/28 12:51:45;;;;;;;2.33;0.40;;;24.50;45.20;;;;;;5955617;23;20463;-89
2022/06/28 12:54:11;;;;;;;1.45;0.45;;;24.50;45.20;;;;;;5978133;23;20023;-90
2022/06/28 12:56:36;;;;;;;1.42;0.60;;;24.60;45.20;;;;;;6003675;23;20023;-89
2022/06/28 12:59:03;;;;;;;3.83;0.80;;;24.60;44.90;;;;;;6002266;23;20121;-90
2022/06/28 13:01:28;;;;;;;1.92;0.70;;;24.70;44.80;;;;;;5982653;23;20069;-90
2022/06/28 13:03:54;;;;;;;2.00;0.60;;;24.70;44.70;;;;;;6031506;23;20450;-89
2022/06/28 13:06:21;;;;;;;3.50;0.65;;;24.70;44.30;;;;;;6055851;23;20032;-90
2022/06/28 13:08:47;;;;;;;2.55;0.50;;;24.70;44.20;;;;;;6008131;23;20395;-90